Moore Station, Texas
Current Conditions -  °F | °C
As of 3:35 AM on Saturday 20 Dec 2014 (Local Time) from KF44 Reporting Station
Haze Haze  
Wind Chill: 41°   Ceiling: 700
Heat Index: 45°   Visibility: 5mi
Dew Point: 45°   Wind: 6mph
Humidity: 100%   Direction: 20°NNE
Pressure: 30.19"   Gusts: NA
Location:  32.1433°N, 95.643°W
Report Text: KF44 200935Z AUTO 02005KT 5SM BR OVC007 07/07 A3019 RMK AO2
Loading
Personal Weather Stations






























Interactive Weather Map New forecast layout! Learn more

10-Day Weather Forecast

Advertisements
Track Severe Weather on mobile